sensor_id;sensor_type;location;lat;lon;timestamp;temperature;humidity
38784;DHT22;24531;45.502;12.238;2023-06-10T00:01:24;23.50;98.40
38784;DHT22;24531;45.502;12.238;2023-06-10T00:03:50;23.40;98.40
38784;DHT22;24531;45.502;12.238;2023-06-10T00:06:17;23.40;98.60
38784;DHT22;24531;45.502;12.238;2023-06-10T00:08:43;23.50;98.60
38784;DHT22;24531;45.502;12.238;2023-06-10T00:11:08;23.50;98.60
38784;DHT22;24531;45.502;12.238;2023-06-10T00:13:34;23.50;98.70
38784;DHT22;24531;45.502;12.238;2023-06-10T00:16:01;23.50;98.70
38784;DHT22;24531;45.502;12.238;2023-06-10T00:18:26;23.50;99.00
38784;DHT22;24531;45.502;12.238;2023-06-10T00:20:52;23.40;98.90
38784;DHT22;24531;45.502;12.238;2023-06-10T00:23:21;23.40;99.00
38784;DHT22;24531;45.502;12.238;2023-06-10T00:25:46;23.50;99.10
38784;DHT22;24531;45.502;12.238;2023-06-10T00:28:12;23.50;99.20
38784;DHT22;24531;45.502;12.238;2023-06-10T00:30:38;23.40;99.40
38784;DHT22;24531;45.502;12.238;2023-06-10T00:33:04;23.50;99.40
38784;DHT22;24531;45.502;12.238;2023-06-10T00:35:30;23.50;99.50
38784;DHT22;24531;45.502;12.238;2023-06-10T00:37:55;23.50;99.40
38784;DHT22;24531;45.502;12.238;2023-06-10T00:40:21;23.50;99.40
38784;DHT22;24531;45.502;12.238;2023-06-10T00:42:47;23.50;99.50
38784;DHT22;24531;45.502;12.238;2023-06-10T00:45:12;23.50;99.50
38784;DHT22;24531;45.502;12.238;2023-06-10T00:47:41;23.50;99.70
38784;DHT22;24531;45.502;12.238;2023-06-10T00:50:07;23.50;99.70
38784;DHT22;24531;45.502;12.238;2023-06-10T00:52:33;23.40;99.60
38784;DHT22;24531;45.502;12.238;2023-06-10T00:55:00;23.40;99.50
38784;DHT22;24531;45.502;12.238;2023-06-10T00:57:26;23.30;99.80
38784;DHT22;24531;45.502;12.238;2023-06-10T00:59:52;23.40;99.60
38784;DHT22;24531;45.502;12.238;2023-06-10T01:02:17;23.40;99.80
38784;DHT22;24531;45.502;12.238;2023-06-10T01:04:43;23.50;99.60
38784;DHT22;24531;45.502;12.238;2023-06-10T01:07:49;23.50;99.60
38784;DHT22;24531;45.502;12.238;2023-06-10T01:10:24;23.50;99.60
38784;DHT22;24531;45.502;12.238;2023-06-10T01:13:00;23.60;99.60
38784;DHT22;24531;45.502;12.238;2023-06-10T01:15:31;23.60;99.60
38784;DHT22;24531;45.502;12.238;2023-06-10T01:17:59;23.50;99.60
38784;DHT22;24531;45.502;12.238;2023-06-10T01:20:26;23.50;99.70
38784;DHT22;24531;45.502;12.238;2023-06-10T01:22:54;23.50;99.90
38784;DHT22;24531;45.502;12.238;2023-06-10T01:25:23;23.50;99.80
38784;DHT22;24531;45.502;12.238;2023-06-10T01:30:29;23.50;99.90
38784;DHT22;24531;45.502;12.238;2023-06-10T01:32:58;23.50;99.90
38784;DHT22;24531;45.502;12.238;2023-06-10T01:35:25;23.40;99.90
38784;DHT22;24531;45.502;12.238;2023-06-10T01:37:53;23.40;99.90
38784;DHT22;24531;45.502;12.238;2023-06-10T01:40:20;23.40;99.90
38784;DHT22;24531;45.502;12.238;2023-06-10T01:42:46;23.40;99.90
38784;DHT22;24531;45.502;12.238;2023-06-10T01:45:12;23.30;99.90
38784;DHT22;24531;45.502;12.238;2023-06-10T01:47:37;23.30;99.90
38784;DHT22;24531;45.502;12.238;2023-06-10T01:50:03;23.40;99.90
38784;DHT22;24531;45.502;12.238;2023-06-10T01:52:29;23.30;99.90
38784;DHT22;24531;45.502;12.238;2023-06-10T01:54:54;23.40;99.90
38784;DHT22;24531;45.502;12.238;2023-06-10T01:57:20;23.40;99.90
38784;DHT22;24531;45.502;12.238;2023-06-10T01:59:46;23.40;99.90
38784;DHT22;24531;45.502;12.238;2023-06-10T02:02:11;23.30;99.90
38784;DHT22;24531;45.502;12.238;2023-06-10T02:04:37;23.20;99.90
38784;DHT22;24531;45.502;12.238;2023-06-10T02:07:03;23.20;99.90
38784;DHT22;24531;45.502;12.238;2023-06-10T02:09:30;23.20;99.90
38784;DHT22;24531;45.502;12.238;2023-06-10T02:11:55;23.20;99.90
38784;DHT22;24531;45.502;12.238;2023-06-10T02:14:21;21.70;99.90
38784;DHT22;24531;45.502;12.238;2023-06-10T02:16:47;23.10;99.90
38784;DHT22;24531;45.502;12.238;2023-06-10T02:19:13;23.00;99.90
38784;DHT22;24531;45.502;12.238;2023-06-10T02:21:39;23.00;99.90
38784;DHT22;24531;45.502;12.238;2023-06-10T02:24:05;23.10;99.90
38784;DHT22;24531;45.502;12.238;2023-06-10T02:26:31;23.10;99.90
38784;DHT22;24531;45.502;12.238;2023-06-10T02:28:57;23.20;99.90
38784;DHT22;24531;45.502;12.238;2023-06-10T02:31:22;23.20;99.90
38784;DHT22;24531;45.502;12.238;2023-06-10T02:33:49;23.20;99.90
38784;DHT22;24531;45.502;12.238;2023-06-10T02:36:15;23.10;99.90
38784;DHT22;24531;45.502;12.238;2023-06-10T02:38:41;23.00;99.90
38784;DHT22;24531;45.502;12.238;2023-06-10T02:41:07;23.00;99.90
38784;DHT22;24531;45.502;12.238;2023-06-10T02:43:32;22.90;99.90
38784;DHT22;24531;45.502;12.238;2023-06-10T02:45:58;23.00;99.90
38784;DHT22;24531;45.502;12.238;2023-06-10T02:48:24;23.00;99.90
38784;DHT22;24531;45.502;12.238;2023-06-10T02:50:50;23.00;99.90
38784;DHT22;24531;45.502;12.238;2023-06-10T02:53:16;23.00;99.90
38784;DHT22;24531;45.502;12.238;2023-06-10T02:55:41;23.00;99.90
38784;DHT22;24531;45.502;12.238;2023-06-10T02:58:09;23.00;99.90
38784;DHT22;24531;45.502;12.238;2023-06-10T03:00:34;22.90;99.90
38784;DHT22;24531;45.502;12.238;2023-06-10T03:03:01;22.80;99.90
38784;DHT22;24531;45.502;12.238;2023-06-10T03:05:29;22.70;99.90
38784;DHT22;24531;45.502;12.238;2023-06-10T03:07:54;22.80;99.90
38784;DHT22;24531;45.502;12.238;2023-06-10T03:10:20;22.80;99.90
38784;DHT22;24531;45.502;12.238;2023-06-10T03:12:46;22.80;99.90
38784;DHT22;24531;45.502;12.238;2023-06-10T03:15:12;22.80;99.90
38784;DHT22;24531;45.502;12.238;2023-06-10T03:17:37;22.90;99.90
38784;DHT22;24531;45.502;12.238;2023-06-10T03:20:05;22.90;99.90
38784;DHT22;24531;45.502;12.238;2023-06-10T03:22:33;22.80;99.90
38784;DHT22;24531;45.502;12.238;2023-06-10T03:24:59;22.80;99.90
38784;DHT22;24531;45.502;12.238;2023-06-10T03:27:25;22.90;99.90
38784;DHT22;24531;45.502;12.238;2023-06-10T03:29:51;22.90;99.90
38784;DHT22;24531;45.502;12.238;2023-06-10T03:32:16;23.00;99.90
38784;DHT22;24531;45.502;12.238;2023-06-10T03:34:43;23.10;99.90
38784;DHT22;24531;45.502;12.238;2023-06-10T03:37:10;23.10;99.90
38784;DHT22;24531;45.502;12.238;2023-06-10T03:39:36;23.10;99.90
38784;DHT22;24531;45.502;12.238;2023-06-10T03:42:01;23.20;99.90
38784;DHT22;24531;45.502;12.238;2023-06-10T03:44:27;23.20;99.90
38784;DHT22;24531;45.502;12.238;2023-06-10T03:46:56;23.20;99.90
38784;DHT22;24531;45.502;12.238;2023-06-10T03:49:22;23.30;99.90
38784;DHT22;24531;45.502;12.238;2023-06-10T03:51:51;23.30;99.90
38784;DHT22;24531;45.502;12.238;2023-06-10T03:54:16;23.30;99.90
38784;DHT22;24531;45.502;12.238;2023-06-10T03:56:42;23.30;99.90
38784;DHT22;24531;45.502;12.238;2023-06-10T03:59:08;23.30;99.90
38784;DHT22;24531;45.502;12.238;2023-06-10T04:01:33;23.80;99.90
38784;DHT22;24531;45.502;12.238;2023-06-10T04:04:00;23.30;99.90
38784;DHT22;24531;45.502;12.238;2023-06-10T04:06:26;23.30;99.90
38784;DHT22;24531;45.502;12.238;2023-06-10T04:08:54;23.30;99.90
38784;DHT22;24531;45.502;12.238;2023-06-10T04:11:21;23.30;99.90
38784;DHT22;24531;45.502;12.238;2023-06-10T04:13:48;23.20;99.90
38784;DHT22;24531;45.502;12.238;2023-06-10T04:16:14;23.30;99.90
38784;DHT22;24531;45.502;12.238;2023-06-10T04:18:40;23.30;99.90
38784;DHT22;24531;45.502;12.238;2023-06-10T04:21:07;23.30;99.90
38784;DHT22;24531;45.502;12.238;2023-06-10T04:23:34;23.30;99.90
38784;DHT22;24531;45.502;12.238;2023-06-10T04:26:00;23.40;99.90
38784;DHT22;24531;45.502;12.238;2023-06-10T04:28:26;23.40;99.90
38784;DHT22;24531;45.502;12.238;2023-06-10T04:30:52;23.50;99.90
38784;DHT22;24531;45.502;12.238;2023-06-10T04:33:18;23.50;99.90
38784;DHT22;24531;45.502;12.238;2023-06-10T04:35:44;23.50;99.90
38784;DHT22;24531;45.502;12.238;2023-06-10T04:38:10;23.50;99.90
38784;DHT22;24531;45.502;12.238;2023-06-10T04:40:35;23.50;99.90
38784;DHT22;24531;45.502;12.238;2023-06-10T04:43:01;23.60;99.90
38784;DHT22;24531;45.502;12.238;2023-06-10T04:45:26;23.60;99.90
38784;DHT22;24531;45.502;12.238;2023-06-10T04:47:52;23.60;99.90
38784;DHT22;24531;45.502;12.238;2023-06-10T04:50:18;23.70;99.90
38784;DHT22;24531;45.502;12.238;2023-06-10T04:52:43;23.70;99.90
38784;DHT22;24531;45.502;12.238;2023-06-10T04:55:09;23.80;99.90
38784;DHT22;24531;45.502;12.238;2023-06-10T04:57:36;23.90;99.90
38784;DHT22;24531;45.502;12.238;2023-06-10T05:00:02;23.90;99.90
38784;DHT22;24531;45.502;12.238;2023-06-10T05:02:31;24.00;99.90
38784;DHT22;24531;45.502;12.238;2023-06-10T05:04:56;24.00;99.90
38784;DHT22;24531;45.502;12.238;2023-06-10T05:07:23;24.10;99.90
38784;DHT22;24531;45.502;12.238;2023-06-10T05:09:49;24.10;99.90
38784;DHT22;24531;45.502;12.238;2023-06-10T05:12:15;24.20;99.90
38784;DHT22;24531;45.502;12.238;2023-06-10T05:14:40;24.30;99.90
38784;DHT22;24531;45.502;12.238;2023-06-10T05:17:06;24.30;99.90
38784;DHT22;24531;45.502;12.238;2023-06-10T05:19:32;24.40;99.90
38784;DHT22;24531;45.502;12.238;2023-06-10T05:21:58;24.50;99.90
38784;DHT22;24531;45.502;12.238;2023-06-10T05:24:23;24.50;99.90
38784;DHT22;24531;45.502;12.238;2023-06-10T05:26:49;24.60;99.90
38784;DHT22;24531;45.502;12.238;2023-06-10T05:29:15;24.60;99.90
38784;DHT22;24531;45.502;12.238;2023-06-10T05:31:41;24.60;99.90
38784;DHT22;24531;45.502;12.238;2023-06-10T05:34:07;24.70;99.90
38784;DHT22;24531;45.502;12.238;2023-06-10T05:36:32;24.70;99.90
38784;DHT22;24531;45.502;12.238;2023-06-10T05:38:58;24.80;99.90
38784;DHT22;24531;45.502;12.238;2023-06-10T05:41:23;24.80;99.90
38784;DHT22;24531;45.502;12.238;2023-06-10T05:43:50;24.80;99.90
38784;DHT22;24531;45.502;12.238;2023-06-10T05:46:16;24.80;99.90
38784;DHT22;24531;45.502;12.238;2023-06-10T05:48:41;24.80;99.90
38784;DHT22;24531;45.502;12.238;2023-06-10T05:51:07;24.80;99.90
38784;DHT22;24531;45.502;12.238;2023-06-10T05:53:33;24.90;99.90
38784;DHT22;24531;45.502;12.238;2023-06-10T05:55:58;24.90;99.90
38784;DHT22;24531;45.502;12.238;2023-06-10T05:58:24;24.90;99.90
38784;DHT22;24531;45.502;12.238;2023-06-10T06:00:50;24.80;99.90
38784;DHT22;24531;45.502;12.238;2023-06-10T06:03:16;24.80;99.90
38784;DHT22;24531;45.502;12.238;2023-06-10T06:05:42;24.80;99.90
38784;DHT22;24531;45.502;12.238;2023-06-10T06:08:09;25.80;99.90
38784;DHT22;24531;45.502;12.238;2023-06-10T06:10:35;24.80;99.90
38784;DHT22;24531;45.502;12.238;2023-06-10T06:13:01;24.90;99.90
38784;DHT22;24531;45.502;12.238;2023-06-10T06:15:26;24.80;99.90
38784;DHT22;24531;45.502;12.238;2023-06-10T06:17:52;24.80;99.90
38784;DHT22;24531;45.502;12.238;2023-06-10T06:20:19;24.80;99.90
38784;DHT22;24531;45.502;12.238;2023-06-10T06:22:44;24.90;99.90
38784;DHT22;24531;45.502;12.238;2023-06-10T06:25:10;25.00;99.90
38784;DHT22;24531;45.502;12.238;2023-06-10T06:27:36;25.10;99.90
38784;DHT22;24531;45.502;12.238;2023-06-10T06:30:01;25.20;99.90
38784;DHT22;24531;45.502;12.238;2023-06-10T06:32:27;25.30;99.90
38784;DHT22;24531;45.502;12.238;2023-06-10T06:34:53;25.30;99.90
38784;DHT22;24531;45.502;12.238;2023-06-10T06:37:23;25.30;99.90
38784;DHT22;24531;45.502;12.238;2023-06-10T06:39:53;25.40;99.90
38784;DHT22;24531;45.502;12.238;2023-06-10T06:42:19;25.40;99.90
38784;DHT22;24531;45.502;12.238;2023-06-10T06:44:45;25.50;99.90
38784;DHT22;24531;45.502;12.238;2023-06-10T06:47:11;25.50;99.90
38784;DHT22;24531;45.502;12.238;2023-06-10T06:49:37;25.50;99.90
38784;DHT22;24531;45.502;12.238;2023-06-10T06:52:03;25.50;99.90
38784;DHT22;24531;45.502;12.238;2023-06-10T06:54:29;25.60;99.90
38784;DHT22;24531;45.502;12.238;2023-06-10T06:56:54;25.60;99.90
38784;DHT22;24531;45.502;12.238;2023-06-10T06:59:20;25.70;99.90
38784;DHT22;24531;45.502;12.238;2023-06-10T07:01:46;25.80;99.60
38784;DHT22;24531;45.502;12.238;2023-06-10T07:04:14;25.70;99.30
38784;DHT22;24531;45.502;12.238;2023-06-10T07:06:39;25.70;99.30
38784;DHT22;24531;45.502;12.238;2023-06-10T07:09:05;25.70;99.30
38784;DHT22;24531;45.502;12.238;2023-06-10T07:11:31;25.80;99.20
38784;DHT22;24531;45.502;12.238;2023-06-10T07:13:57;25.90;99.00
38784;DHT22;24531;45.502;12.238;2023-06-10T07:16:22;26.00;99.00
38784;DHT22;24531;45.502;12.238;2023-06-10T07:18:48;26.10;99.00
38784;DHT22;24531;45.502;12.238;2023-06-10T07:21:14;26.20;98.90
38784;DHT22;24531;45.502;12.238;2023-06-10T07:23:43;26.40;98.80
38784;DHT22;24531;45.502;12.238;2023-06-10T07:26:10;26.50;98.70
38784;DHT22;24531;45.502;12.238;2023-06-10T07:28:37;26.60;98.70
38784;DHT22;24531;45.502;12.238;2023-06-10T07:31:03;26.80;98.50
38784;DHT22;24531;45.502;12.238;2023-06-10T07:33:29;26.80;98.40
38784;DHT22;24531;45.502;12.238;2023-06-10T07:35:54;26.90;98.30
38784;DHT22;24531;45.502;12.238;2023-06-10T07:38:20;27.10;98.20
38784;DHT22;24531;45.502;12.238;2023-06-10T07:40:46;27.30;98.00
38784;DHT22;24531;45.502;12.238;2023-06-10T07:43:12;27.60;97.60
38784;DHT22;24531;45.502;12.238;2023-06-10T07:45:40;27.80;97.30
38784;DHT22;24531;45.502;12.238;2023-06-10T07:48:06;27.90;96.90
38784;DHT22;24531;45.502;12.238;2023-06-10T07:50:32;28.00;96.50
38784;DHT22;24531;45.502;12.238;2023-06-10T07:52:58;27.90;96.00
38784;DHT22;24531;45.502;12.238;2023-06-10T07:55:23;28.00;96.10
38784;DHT22;24531;45.502;12.238;2023-06-10T07:57:51;28.10;95.90
38784;DHT22;24531;45.502;12.238;2023-06-10T08:00:17;28.10;95.70
38784;DHT22;24531;45.502;12.238;2023-06-10T08:02:43;28.10;95.70
38784;DHT22;24531;45.502;12.238;2023-06-10T08:05:08;28.30;95.60
38784;DHT22;24531;45.502;12.238;2023-06-10T08:07:35;28.60;95.80
38784;DHT22;24531;45.502;12.238;2023-06-10T08:10:01;28.80;95.20
38784;DHT22;24531;45.502;12.238;2023-06-10T08:12:28;28.80;95.00
38784;DHT22;24531;45.502;12.238;2023-06-10T08:14:54;28.70;94.40
38784;DHT22;24531;45.502;12.238;2023-06-10T08:17:20;28.50;94.70
38784;DHT22;24531;45.502;12.238;2023-06-10T08:19:46;28.60;94.80
38784;DHT22;24531;45.502;12.238;2023-06-10T08:22:12;28.70;94.90
38784;DHT22;24531;45.502;12.238;2023-06-10T08:24:40;28.70;95.00
38784;DHT22;24531;45.502;12.238;2023-06-10T08:27:05;29.00;94.90
38784;DHT22;24531;45.502;12.238;2023-06-10T08:29:31;29.40;94.50
38784;DHT22;24531;45.502;12.238;2023-06-10T08:31:57;29.60;94.20
38784;DHT22;24531;45.502;12.238;2023-06-10T08:34:26;29.70;93.70
38784;DHT22;24531;45.502;12.238;2023-06-10T08:36:53;29.60;93.40
38784;DHT22;24531;45.502;12.238;2023-06-10T08:39:19;29.50;93.50
38784;DHT22;24531;45.502;12.238;2023-06-10T08:42:00;29.60;93.50
38784;DHT22;24531;45.502;12.238;2023-06-10T08:44:29;29.80;93.00
38784;DHT22;24531;45.502;12.238;2023-06-10T08:47:00;29.90;92.60
38784;DHT22;24531;45.502;12.238;2023-06-10T08:49:27;30.00;92.10
38784;DHT22;24531;45.502;12.238;2023-06-10T08:51:58;29.90;91.40
38784;DHT22;24531;45.502;12.238;2023-06-10T08:54:26;29.90;91.00
38784;DHT22;24531;45.502;12.238;2023-06-10T08:56:55;29.60;90.80
38784;DHT22;24531;45.502;12.238;2023-06-10T08:59:23;29.50;91.00
38784;DHT22;24531;45.502;12.238;2023-06-10T09:01:50;29.90;91.10
38784;DHT22;24531;45.502;12.238;2023-06-10T09:04:16;30.40;90.90
38784;DHT22;24531;45.502;12.238;2023-06-10T09:06:44;30.80;90.30
38784;DHT22;24531;45.502;12.238;2023-06-10T09:09:10;31.10;90.20
38784;DHT22;24531;45.502;12.238;2023-06-10T09:11:38;31.70;90.00
38784;DHT22;24531;45.502;12.238;2023-06-10T09:14:04;32.40;88.00
38784;DHT22;24531;45.502;12.238;2023-06-10T09:16:29;32.80;86.10
38784;DHT22;24531;45.502;12.238;2023-06-10T09:18:55;32.80;85.50
38784;DHT22;24531;45.502;12.238;2023-06-10T09:21:24;32.80;85.40
38784;DHT22;24531;45.502;12.238;2023-06-10T09:23:51;33.00;84.80
38784;DHT22;24531;45.502;12.238;2023-06-10T09:26:17;32.90;84.70
38784;DHT22;24531;45.502;12.238;2023-06-10T09:28:44;32.80;83.80
38784;DHT22;24531;45.502;12.238;2023-06-10T09:31:13;33.30;83.30
38784;DHT22;24531;45.502;12.238;2023-06-10T09:33:40;33.60;83.70
38784;DHT22;24531;45.502;12.238;2023-06-10T09:36:06;33.40;82.00
38784;DHT22;24531;45.502;12.238;2023-06-10T09:38:32;32.70;82.80
38784;DHT22;24531;45.502;12.238;2023-06-10T09:40:58;31.90;83.70
38784;DHT22;24531;45.502;12.238;2023-06-10T09:46:04;30.70;86.00
38784;DHT22;24531;45.502;12.238;2023-06-10T09:48:34;30.30;87.50
38784;DHT22;24531;45.502;12.238;2023-06-10T09:50:59;30.10;87.70
38784;DHT22;24531;45.502;12.238;2023-06-10T09:53:25;30.00;88.20
38784;DHT22;24531;45.502;12.238;2023-06-10T09:55:52;29.80;88.20
38784;DHT22;24531;45.502;12.238;2023-06-10T09:58:17;29.70;88.10
38784;DHT22;24531;45.502;12.238;2023-06-10T10:00:43;29.20;88.70
38784;DHT22;24531;45.502;12.238;2023-06-10T10:03:10;27.20;88.60
38784;DHT22;24531;45.502;12.238;2023-06-10T10:05:47;29.20;90.00
38784;DHT22;24531;45.502;12.238;2023-06-10T10:08:13;29.20;90.10
38784;DHT22;24531;45.502;12.238;2023-06-10T10:10:38;29.10;90.20
38784;DHT22;24531;45.502;12.238;2023-06-10T10:13:04;29.10;90.40
38784;DHT22;24531;45.502;12.238;2023-06-10T10:15:32;29.10;90.30
38784;DHT22;24531;45.502;12.238;2023-06-10T10:18:07;29.00;90.40
38784;DHT22;24531;45.502;12.238;2023-06-10T10:20:39;28.90;90.60
38784;DHT22;24531;45.502;12.238;2023-06-10T10:23:08;28.80;90.70
38784;DHT22;24531;45.502;12.238;2023-06-10T10:25:38;28.80;90.90
38784;DHT22;24531;45.502;12.238;2023-06-10T10:28:11;28.60;91.20
38784;DHT22;24531;45.502;12.238;2023-06-10T10:30:42;28.60;91.20
38784;DHT22;24531;45.502;12.238;2023-06-10T10:33:13;28.20;91.60
38784;DHT22;24531;45.502;12.238;2023-06-10T10:35:42;28.10;92.10
38784;DHT22;24531;45.502;12.238;2023-06-10T10:38:09;28.10;92.40
38784;DHT22;24531;45.502;12.238;2023-06-10T10:40:35;28.10;92.60
38784;DHT22;24531;45.502;12.238;2023-06-10T10:45:36;28.20;92.70
38784;DHT22;24531;45.502;12.238;2023-06-10T10:48:07;28.40;92.80
38784;DHT22;24531;45.502;12.238;2023-06-10T10:50:35;28.40;92.60
38784;DHT22;24531;45.502;12.238;2023-06-10T10:53:05;28.30;92.70
38784;DHT22;24531;45.502;12.238;2023-06-10T10:55:31;28.20;93.00
38784;DHT22;24531;45.502;12.238;2023-06-10T10:58:04;28.00;93.00
38784;DHT22;24531;45.502;12.238;2023-06-10T11:00:35;27.90;93.60
38784;DHT22;24531;45.502;12.238;2023-06-10T11:08:01;27.90;93.80
38784;DHT22;24531;45.502;12.238;2023-06-10T11:10:32;27.90;93.90
38784;DHT22;24531;45.502;12.238;2023-06-10T11:13:20;27.90;93.80
38784;DHT22;24531;45.502;12.238;2023-06-10T11:20:01;27.00;93.50
38784;DHT22;24531;45.502;12.238;2023-06-10T11:32:36;28.50;94.50
38784;DHT22;24531;45.502;12.238;2023-06-10T11:35:05;27.70;94.60
38784;DHT22;24531;45.502;12.238;2023-06-10T11:37:32;27.40;94.20
38784;DHT22;24531;45.502;12.238;2023-06-10T11:39:58;27.40;94.50
38784;DHT22;24531;45.502;12.238;2023-06-10T11:44:59;27.40;94.40
38784;DHT22;24531;45.502;12.238;2023-06-10T11:47:28;27.40;94.60
38784;DHT22;24531;45.502;12.238;2023-06-10T11:52:26;27.50;94.80
38784;DHT22;24531;45.502;12.238;2023-06-10T11:54:55;26.50;94.50
38784;DHT22;24531;45.502;12.238;2023-06-10T11:57:21;27.70;95.20
38784;DHT22;24531;45.502;12.238;2023-06-10T11:59:47;27.90;95.00
38784;DHT22;24531;45.502;12.238;2023-06-10T12:02:17;28.00;94.80
38784;DHT22;24531;45.502;12.238;2023-06-10T12:04:42;28.00;95.00
38784;DHT22;24531;45.502;12.238;2023-06-10T12:07:08;28.30;94.80
38784;DHT22;24531;45.502;12.238;2023-06-10T12:09:34;28.30;94.40
38784;DHT22;24531;45.502;12.238;2023-06-10T12:12:05;28.30;94.30
38784;DHT22;24531;45.502;12.238;2023-06-10T12:14:57;28.40;94.40
38784;DHT22;24531;45.502;12.238;2023-06-10T12:31:08;30.70;94.30
38784;DHT22;24531;45.502;12.238;2023-06-10T12:34:10;28.90;94.00
38784;DHT22;24531;45.502;12.238;2023-06-10T12:37:10;29.70;93.70
38784;DHT22;24531;45.502;12.238;2023-06-10T12:46:20;31.20;94.00
38784;DHT22;24531;45.502;12.238;2023-06-10T12:55:29;30.40;93.90
38784;DHT22;24531;45.502;12.238;2023-06-10T12:57:56;28.40;93.50
38784;DHT22;24531;45.502;12.238;2023-06-10T13:00:22;28.50;93.60
38784;DHT22;24531;45.502;12.238;2023-06-10T13:02:51;28.60;93.80
38784;DHT22;24531;45.502;12.238;2023-06-10T13:05:18;28.70;93.60
38784;DHT22;24531;45.502;12.238;2023-06-10T13:07:44;28.80;93.60
38784;DHT22;24531;45.502;12.238;2023-06-10T13:10:10;28.80;93.60
38784;DHT22;24531;45.502;12.238;2023-06-10T13:12:35;28.90;93.10
38784;DHT22;24531;45.502;12.238;2023-06-10T13:15:03;28.80;93.30
38784;DHT22;24531;45.502;12.238;2023-06-10T13:17:29;28.70;93.10
38784;DHT22;24531;45.502;12.238;2023-06-10T13:19:55;28.70;92.80
38784;DHT22;24531;45.502;12.238;2023-06-10T13:22:21;28.50;92.90
38784;DHT22;24531;45.502;12.238;2023-06-10T13:24:47;28.50;93.10
38784;DHT22;24531;45.502;12.238;2023-06-10T13:27:15;28.50;92.80
38784;DHT22;24531;45.502;12.238;2023-06-10T13:29:40;28.50;92.40
38784;DHT22;24531;45.502;12.238;2023-06-10T13:32:07;28.40;92.30
38784;DHT22;24531;45.502;12.238;2023-06-10T13:34:33;28.50;92.20
38784;DHT22;24531;45.502;12.238;2023-06-10T13:36:58;28.60;92.10
38784;DHT22;24531;45.502;12.238;2023-06-10T13:39:24;28.60;92.10
38784;DHT22;24531;45.502;12.238;2023-06-10T13:41:50;28.60;91.70
38784;DHT22;24531;45.502;12.238;2023-06-10T13:44:17;28.70;91.60
38784;DHT22;24531;45.502;12.238;2023-06-10T13:46:43;28.70;91.10
38784;DHT22;24531;45.502;12.238;2023-06-10T13:49:08;28.70;91.40
38784;DHT22;24531;45.502;12.238;2023-06-10T13:51:34;28.70;91.30
38784;DHT22;24531;45.502;12.238;2023-06-10T13:54:00;28.80;91.20
38784;DHT22;24531;45.502;12.238;2023-06-10T13:56:26;28.80;90.20
38784;DHT22;24531;45.502;12.238;2023-06-10T13:58:51;28.70;90.50
38784;DHT22;24531;45.502;12.238;2023-06-10T14:01:17;28.80;90.40
38784;DHT22;24531;45.502;12.238;2023-06-10T14:03:43;28.90;90.30
38784;DHT22;24531;45.502;12.238;2023-06-10T14:06:08;28.90;90.30
38784;DHT22;24531;45.502;12.238;2023-06-10T14:08:35;29.00;90.00
38784;DHT22;24531;45.502;12.238;2023-06-10T14:11:00;29.00;89.50
38784;DHT22;24531;45.502;12.238;2023-06-10T14:13:26;28.90;89.60
38784;DHT22;24531;45.502;12.238;2023-06-10T14:15:51;29.00;90.00
38784;DHT22;24531;45.502;12.238;2023-06-10T14:18:18;29.10;89.50
38784;DHT22;24531;45.502;12.238;2023-06-10T14:20:43;29.20;89.50
38784;DHT22;24531;45.502;12.238;2023-06-10T14:23:12;29.20;89.30
38784;DHT22;24531;45.502;12.238;2023-06-10T14:25:37;29.40;88.40
38784;DHT22;24531;45.502;12.238;2023-06-10T14:28:03;29.40;88.00
38784;DHT22;24531;45.502;12.238;2023-06-10T14:30:29;29.40;87.90
38784;DHT22;24531;45.502;12.238;2023-06-10T14:32:55;29.40;88.10
38784;DHT22;24531;45.502;12.238;2023-06-10T14:35:20;29.50;88.20
38784;DHT22;24531;45.502;12.238;2023-06-10T14:37:46;29.50;88.40
38784;DHT22;24531;45.502;12.238;2023-06-10T14:40:12;29.50;86.60
38784;DHT22;24531;45.502;12.238;2023-06-10T14:42:38;29.40;87.10
38784;DHT22;24531;45.502;12.238;2023-06-10T14:45:04;29.30;86.50
38784;DHT22;24531;45.502;12.238;2023-06-10T14:47:31;29.30;86.20
38784;DHT22;24531;45.502;12.238;2023-06-10T14:49:56;29.30;86.60
38784;DHT22;24531;45.502;12.238;2023-06-10T14:52:22;29.30;86.70
38784;DHT22;24531;45.502;12.238;2023-06-10T14:54:48;29.30;86.70
38784;DHT22;24531;45.502;12.238;2023-06-10T15:08:35;28.90;85.80
38784;DHT22;24531;45.502;12.238;2023-06-10T15:11:29;30.40;86.70
38784;DHT22;24531;45.502;12.238;2023-06-10T15:14:03;27.40;84.40
38784;DHT22;24531;45.502;12.238;2023-06-10T15:16:29;28.50;85.90
38784;DHT22;24531;45.502;12.238;2023-06-10T15:19:04;28.50;86.50
38784;DHT22;24531;45.502;12.238;2023-06-10T15:21:34;28.60;86.50
38784;DHT22;24531;45.502;12.238;2023-06-10T15:24:17;28.80;85.80
38784;DHT22;24531;45.502;12.238;2023-06-10T15:26:45;28.50;85.90
38784;DHT22;24531;45.502;12.238;2023-06-10T15:29:36;28.50;86.50
38784;DHT22;24531;45.502;12.238;2023-06-10T15:32:30;29.80;86.60
38784;DHT22;24531;45.502;12.238;2023-06-10T15:37:24;28.40;86.00
38784;DHT22;24531;45.502;12.238;2023-06-10T15:39:50;28.40;87.30
38784;DHT22;24531;45.502;12.238;2023-06-10T15:45:03;28.40;86.30
38784;DHT22;24531;45.502;12.238;2023-06-10T15:50:28;28.80;86.60
38784;DHT22;24531;45.502;12.238;2023-06-10T15:55:24;28.10;85.60
38784;DHT22;24531;45.502;12.238;2023-06-10T15:57:57;28.10;86.00
38784;DHT22;24531;45.502;12.238;2023-06-10T16:01:02;28.10;86.70
38784;DHT22;24531;45.502;12.238;2023-06-10T16:06:35;28.20;85.50
38784;DHT22;24531;45.502;12.238;2023-06-10T16:09:03;28.00;88.20
38784;DHT22;24531;45.502;12.238;2023-06-10T16:11:38;28.00;86.30
38784;DHT22;24531;45.502;12.238;2023-06-10T16:14:19;27.90;85.80
38784;DHT22;24531;45.502;12.238;2023-06-10T16:17:23;27.80;85.70
38784;DHT22;24531;45.502;12.238;2023-06-10T16:19:51;26.40;85.00
38784;DHT22;24531;45.502;12.238;2023-06-10T16:22:17;27.80;86.10
38784;DHT22;24531;45.502;12.238;2023-06-10T16:24:43;27.80;85.80
38784;DHT22;24531;45.502;12.238;2023-06-10T16:27:08;27.80;86.30
38784;DHT22;24531;45.502;12.238;2023-06-10T16:29:34;27.80;86.00
38784;DHT22;24531;45.502;12.238;2023-06-10T16:31:59;27.80;86.40
38784;DHT22;24531;45.502;12.238;2023-06-10T16:34:25;27.80;85.90
38784;DHT22;24531;45.502;12.238;2023-06-10T16:36:50;27.80;85.80
38784;DHT22;24531;45.502;12.238;2023-06-10T16:39:16;27.80;85.70
38784;DHT22;24531;45.502;12.238;2023-06-10T16:53:43;28.30;85.60